createdAt,value
2023-07-10T00:00:00.430Z,7.33
2023-07-10T00:02:26.904Z,7.55
2023-07-10T00:04:53.337Z,7.19
2023-07-10T00:07:19.956Z,7.43
2023-07-10T00:09:46.394Z,7.47
2023-07-10T00:12:12.859Z,7.23
2023-07-10T00:14:39.305Z,7.35
2023-07-10T00:17:06.585Z,7.39
2023-07-10T00:19:35.453Z,7.64
2023-07-10T00:22:01.991Z,7.48
2023-07-10T00:24:30.676Z,7.11
2023-07-10T00:26:57.255Z,7.14
2023-07-10T00:29:23.760Z,6.87
2023-07-10T00:31:50.216Z,6.94
2023-07-10T00:34:16.829Z,6.65
2023-07-10T00:36:43.357Z,6.58
2023-07-10T00:39:09.791Z,6.78
2023-07-10T00:41:36.238Z,6.64
2023-07-10T00:44:02.666Z,6.23
2023-07-10T00:46:31.430Z,6.58
2023-07-10T00:48:57.889Z,6.54
2023-07-10T00:51:24.430Z,6.42
2023-07-10T00:53:50.861Z,6.26
2023-07-10T00:56:18.427Z,6.58
2023-07-10T00:58:44.926Z,6.62
2023-07-10T01:01:12.654Z,6.65
2023-07-10T01:03:39.154Z,6.62
2023-07-10T01:06:06.129Z,6.65
2023-07-10T01:08:32.901Z,6.41
2023-07-10T01:11:01.379Z,6.52
2023-07-10T01:13:27.874Z,6.17
2023-07-10T01:15:54.371Z,6.38
2023-07-10T01:18:20.977Z,5.99
2023-07-10T01:20:47.603Z,6.23
2023-07-10T01:23:14.193Z,6.26
2023-07-10T01:25:40.611Z,6.40
2023-07-10T01:28:07.060Z,6.61
2023-07-10T01:30:33.518Z,6.82
2023-07-10T01:32:59.964Z,6.42
2023-07-10T01:35:26.484Z,6.85
2023-07-10T01:37:52.920Z,6.53
2023-07-10T01:40:19.488Z,6.53
2023-07-10T01:42:45.934Z,6.87
2023-07-10T01:45:12.368Z,6.80
2023-07-10T01:47:38.897Z,6.57
2023-07-10T01:50:05.384Z,6.77
2023-07-10T01:52:32.033Z,6.62
2023-07-10T01:54:58.538Z,7.21
2023-07-10T01:57:25.203Z,6.74
2023-07-10T01:59:51.789Z,7.06
2023-07-10T02:02:18.746Z,6.89
2023-07-10T02:04:47.120Z,7.03
2023-07-10T02:07:13.683Z,7.37
2023-07-10T02:09:40.141Z,6.91
2023-07-10T02:12:06.736Z,7.25
2023-07-10T02:14:33.161Z,6.91
2023-07-10T02:16:59.690Z,7.03
2023-07-10T02:19:26.209Z,7.24
2023-07-10T02:21:52.669Z,7.08
2023-07-10T02:24:19.115Z,6.66
2023-07-10T02:26:45.683Z,7.02
2023-07-10T02:29:12.237Z,7.37
2023-07-10T02:31:38.904Z,7.06
2023-07-10T02:34:05.380Z,7.25
2023-07-10T02:36:31.967Z,6.97
2023-07-10T02:38:58.403Z,7.45
2023-07-10T02:41:24.825Z,6.92
2023-07-10T02:43:51.431Z,7.39
2023-07-10T02:46:17.952Z,7.04
2023-07-10T02:48:44.461Z,6.93
2023-07-10T02:51:10.901Z,7.23
2023-07-10T02:53:37.361Z,7.10
2023-07-10T02:56:04.086Z,7.16
2023-07-10T02:58:30.775Z,7.20
2023-07-10T03:00:57.327Z,7.06
2023-07-10T03:03:23.803Z,7.63
2023-07-10T03:05:50.302Z,7.42
2023-07-10T03:08:16.773Z,7.12
2023-07-10T03:10:43.278Z,7.62
2023-07-10T03:13:09.709Z,7.51
2023-07-10T03:15:36.178Z,7.33
2023-07-10T03:18:02.908Z,8.06
2023-07-10T03:20:29.541Z,7.07
2023-07-10T03:22:55.996Z,7.44
2023-07-10T03:25:22.688Z,7.74
2023-07-10T03:27:50.590Z,7.92
2023-07-10T03:30:18.319Z,7.56
2023-07-10T03:32:44.946Z,7.64
2023-07-10T03:35:11.363Z,7.57
2023-07-10T03:37:38.051Z,7.72
2023-07-10T03:40:04.601Z,7.19
2023-07-10T03:42:31.139Z,7.96
2023-07-10T03:44:57.580Z,8.50
2023-07-10T03:47:24.048Z,8.19
2023-07-10T03:49:50.512Z,7.76
2023-07-10T03:52:17.089Z,7.17
2023-07-10T03:54:43.637Z,7.50
2023-07-10T03:57:11.864Z,7.57
2023-07-10T03:59:38.277Z,7.39
2023-07-10T04:02:04.786Z,7.43
2023-07-10T04:04:31.301Z,7.37
2023-07-10T04:06:58.222Z,7.99
2023-07-10T04:09:24.707Z,7.88
2023-07-10T04:11:51.129Z,8.15
2023-07-10T04:14:17.605Z,8.87
2023-07-10T04:16:44.117Z,8.06
2023-07-10T04:19:10.610Z,8.24
2023-07-10T04:21:37.043Z,7.75
2023-07-10T04:24:03.573Z,8.32
2023-07-10T04:26:30.017Z,8.96
2023-07-10T04:28:56.499Z,8.63
2023-07-10T04:31:23.100Z,8.39
2023-07-10T04:33:49.596Z,7.90
2023-07-10T04:36:16.015Z,7.86
2023-07-10T04:38:42.585Z,7.55
2023-07-10T04:41:09.042Z,7.22
2023-07-10T04:43:35.478Z,7.29
2023-07-10T04:46:02.188Z,7.58
2023-07-10T04:48:28.949Z,7.51
2023-07-10T04:50:55.697Z,7.61
2023-07-10T04:53:22.182Z,7.83
2023-07-10T04:55:48.625Z,7.64
2023-07-10T04:58:16.190Z,7.76
2023-07-10T05:00:42.619Z,7.11
2023-07-10T05:03:09.162Z,6.81
2023-07-10T05:05:35.859Z,7.40
2023-07-10T05:08:02.340Z,7.29
2023-07-10T05:10:28.843Z,7.15
2023-07-10T05:12:55.305Z,7.10
2023-07-10T05:15:21.871Z,6.41
2023-07-10T05:17:48.370Z,6.77
2023-07-10T05:20:14.861Z,6.76
2023-07-10T05:22:41.278Z,6.73
2023-07-10T05:25:07.723Z,6.46
2023-07-10T05:27:34.456Z,6.44
2023-07-10T05:30:00.976Z,6.64
2023-07-10T05:32:27.525Z,6.61
2023-07-10T05:34:54.037Z,6.44
2023-07-10T05:37:20.699Z,6.69
2023-07-10T05:39:47.163Z,6.54
2023-07-10T05:42:13.760Z,6.52
2023-07-10T05:44:40.196Z,6.29
2023-07-10T05:47:06.868Z,6.47
2023-07-10T05:49:33.394Z,6.37
2023-07-10T05:51:59.888Z,6.18
2023-07-10T05:54:26.426Z,6.05
2023-07-10T05:56:52.886Z,6.70
2023-07-10T05:59:19.441Z,6.71
2023-07-10T06:01:46.227Z,7.23
2023-07-10T06:04:15.986Z,6.59
2023-07-10T06:06:42.644Z,6.30
2023-07-10T06:09:09.072Z,6.34
2023-07-10T06:11:35.576Z,7.06
2023-07-10T06:14:02.141Z,6.60
2023-07-10T06:16:28.703Z,6.57
2023-07-10T06:18:55.282Z,6.30
2023-07-10T06:21:21.794Z,6.19
2023-07-10T06:23:48.594Z,7.24
2023-07-10T06:26:15.188Z,6.82
2023-07-10T06:28:41.620Z,6.98
2023-07-10T06:31:08.311Z,6.36
2023-07-10T06:33:34.840Z,6.67
2023-07-10T06:36:01.413Z,6.56
2023-07-10T06:38:27.930Z,6.52
2023-07-10T06:40:55.062Z,6.41
2023-07-10T06:43:21.548Z,6.15
2023-07-10T06:45:48.185Z,6.36
2023-07-10T06:48:16.726Z,6.07
2023-07-10T06:50:43.292Z,6.22
2023-07-10T06:53:24.922Z,6.24
2023-07-10T06:55:53.523Z,6.52
2023-07-10T06:58:22.779Z,6.40
2023-07-10T07:00:49.296Z,6.36
2023-07-10T07:03:19.103Z,6.19
2023-07-10T07:05:45.828Z,6.47
2023-07-10T07:08:13.564Z,6.50
2023-07-10T07:10:40.012Z,6.12
2023-07-10T07:13:06.613Z,5.92
2023-07-10T07:15:33.067Z,5.81
2023-07-10T07:17:59.626Z,5.79
2023-07-10T07:20:26.261Z,5.94
2023-07-10T07:22:52.744Z,6.21
2023-07-10T07:25:19.204Z,6.29
2023-07-10T07:27:45.715Z,6.25
2023-07-10T07:30:12.266Z,6.56
2023-07-10T07:32:38.809Z,6.34
2023-07-10T07:35:05.468Z,5.95
2023-07-10T07:37:31.987Z,6.13
2023-07-10T07:39:58.433Z,6.14
2023-07-10T07:42:24.932Z,6.22
2023-07-10T07:44:51.519Z,6.46
2023-07-10T07:47:17.994Z,6.06
2023-07-10T07:49:44.547Z,6.44
2023-07-10T07:52:11.156Z,6.44
2023-07-10T07:54:37.608Z,6.11
2023-07-10T07:57:04.029Z,6.28
2023-07-10T07:59:30.495Z,6.27
2023-07-10T08:01:57.133Z,6.00
2023-07-10T08:04:23.651Z,6.27
2023-07-10T08:06:50.316Z,6.33
2023-07-10T08:09:16.889Z,6.54
2023-07-10T08:11:43.533Z,6.64
2023-07-10T08:14:10.071Z,6.89
2023-07-10T08:16:36.776Z,6.48
2023-07-10T08:19:03.301Z,6.48
2023-07-10T08:21:29.745Z,6.80
2023-07-10T08:23:56.206Z,6.86
2023-07-10T08:26:22.653Z,7.19
2023-07-10T08:28:49.106Z,7.10
2023-07-10T08:31:15.656Z,7.07
2023-07-10T08:33:42.097Z,7.03
2023-07-10T08:36:08.667Z,7.03
2023-07-10T08:38:35.214Z,7.06
2023-07-10T08:41:04.941Z,7.03
2023-07-10T08:43:31.370Z,6.96
2023-07-10T08:45:58.022Z,7.17
2023-07-10T08:48:24.582Z,6.95
2023-07-10T08:50:51.102Z,7.39
2023-07-10T08:53:17.603Z,7.09
2023-07-10T08:55:44.354Z,6.94
2023-07-10T08:58:10.809Z,7.36
2023-07-10T09:00:37.227Z,6.92
2023-07-10T09:03:03.839Z,6.83
2023-07-10T09:05:30.440Z,7.08
2023-07-10T09:07:56.892Z,7.69
2023-07-10T09:10:23.552Z,7.00
2023-07-10T09:12:51.502Z,6.87
2023-07-10T09:15:18.006Z,7.18
2023-07-10T09:17:44.749Z,7.20
2023-07-10T09:20:11.491Z,7.19
2023-07-10T09:22:38.107Z,7.29
2023-07-10T09:25:04.634Z,7.63
2023-07-10T09:27:31.089Z,7.09
2023-07-10T09:29:57.536Z,7.64
2023-07-10T09:32:24.082Z,7.25
2023-07-10T09:34:50.555Z,7.44
2023-07-10T09:37:17.004Z,7.14
2023-07-10T09:39:43.428Z,7.65
2023-07-10T09:42:12.927Z,7.49
2023-07-10T09:44:39.358Z,7.23
2023-07-10T09:47:05.798Z,7.06
2023-07-10T09:49:32.225Z,7.28
2023-07-10T09:51:58.757Z,7.60
2023-07-10T09:54:25.222Z,7.18
2023-07-10T09:56:51.699Z,7.43
2023-07-10T09:59:18.139Z,7.98
2023-07-10T10:01:44.850Z,7.77
2023-07-10T10:04:11.448Z,7.83
2023-07-10T10:06:38.028Z,7.72
2023-07-10T10:09:04.501Z,8.03
2023-07-10T10:11:30.900Z,7.78
2023-07-10T10:13:57.767Z,7.49
2023-07-10T10:16:24.605Z,8.02
2023-07-10T10:18:51.179Z,7.87
2023-07-10T10:21:17.804Z,8.19
2023-07-10T10:23:44.388Z,7.23
2023-07-10T10:26:10.899Z,7.72
2023-07-10T10:28:37.351Z,7.33
2023-07-10T10:31:03.854Z,7.46
2023-07-10T10:33:30.356Z,7.20
2023-07-10T10:35:57.126Z,7.72
2023-07-10T10:38:23.871Z,7.67
2023-07-10T10:40:50.324Z,7.73
2023-07-10T10:43:17.055Z,7.63
2023-07-10T10:45:43.589Z,7.34
2023-07-10T10:48:10.051Z,7.51
2023-07-10T10:50:36.665Z,7.55
2023-07-10T10:53:03.140Z,7.59
2023-07-10T10:55:29.558Z,7.73
2023-07-10T10:57:55.995Z,7.37
2023-07-10T11:00:22.535Z,7.28
2023-07-10T11:02:49.733Z,7.39
2023-07-10T11:05:16.570Z,6.95
2023-07-10T11:07:43.104Z,6.93
2023-07-10T11:10:09.582Z,7.92
2023-07-10T11:12:36.098Z,7.59
2023-07-10T11:15:04.372Z,7.24
2023-07-10T11:17:31.000Z,7.52
2023-07-10T11:19:57.429Z,6.94
2023-07-10T11:22:23.928Z,6.76
2023-07-10T11:24:50.429Z,6.97
2023-07-10T11:27:17.062Z,6.90
2023-07-10T11:29:43.587Z,6.73
2023-07-10T11:32:09.996Z,6.93
2023-07-10T11:34:36.479Z,6.63
2023-07-10T11:37:02.965Z,7.12
2023-07-10T11:39:29.581Z,6.91
2023-07-10T11:41:56.028Z,6.81
2023-07-10T11:44:22.651Z,7.08
2023-07-10T11:46:49.174Z,6.84
2023-07-10T11:49:15.781Z,6.61
2023-07-10T11:51:42.274Z,7.19
2023-07-10T11:54:08.708Z,6.81
2023-07-10T11:56:35.184Z,6.71
2023-07-10T11:59:01.818Z,6.74
2023-07-10T12:01:28.384Z,7.20
2023-07-10T12:03:54.939Z,6.91
2023-07-10T12:06:21.452Z,6.94
2023-07-10T12:08:47.916Z,6.74
2023-07-10T12:11:14.364Z,6.97
2023-07-10T12:13:40.823Z,6.65
2023-07-10T12:16:07.706Z,6.80
2023-07-10T12:18:34.294Z,6.88
2023-07-10T12:21:00.872Z,6.99
2023-07-10T12:23:27.344Z,6.94
2023-07-10T12:25:54.069Z,6.90
2023-07-10T12:28:25.654Z,6.99
2023-07-10T12:30:54.023Z,6.94
2023-07-10T12:33:20.695Z,6.91
2023-07-10T12:35:47.141Z,7.02
2023-07-10T12:38:13.707Z,6.90
2023-07-10T12:40:40.305Z,7.16
2023-07-10T12:43:06.729Z,7.35
2023-07-10T12:45:33.183Z,6.98
2023-07-10T12:47:59.886Z,6.84
2023-07-10T12:50:26.334Z,7.14
2023-07-10T12:52:52.780Z,7.03
2023-07-10T12:55:19.534Z,6.78
2023-07-10T12:57:46.102Z,6.81
2023-07-10T13:00:12.663Z,6.80
2023-07-10T13:02:39.403Z,7.46
2023-07-10T13:05:06.024Z,6.82
2023-07-10T13:07:32.711Z,6.75
2023-07-10T13:09:59.146Z,7.02
2023-07-10T13:12:25.609Z,6.46
2023-07-10T13:14:52.177Z,6.84
2023-07-10T13:17:18.829Z,7.31
2023-07-10T13:19:55.067Z,7.08
2023-07-10T13:22:29.639Z,6.97
2023-07-10T13:24:56.312Z,6.17
2023-07-10T13:27:23.377Z,6.04
2023-07-10T13:29:50.147Z,5.92
2023-07-10T13:32:16.887Z,5.94
2023-07-10T13:34:43.491Z,5.88
2023-07-10T13:37:09.965Z,6.22
2023-07-10T13:39:36.408Z,6.45
2023-07-10T13:42:02.912Z,5.88
2023-07-10T13:44:29.486Z,5.94
2023-07-10T13:46:56.497Z,5.78
2023-07-10T13:49:23.047Z,5.73
2023-07-10T13:51:49.547Z,5.71
2023-07-10T13:54:16.089Z,5.79
2023-07-10T13:56:42.634Z,5.59
2023-07-10T13:59:09.094Z,5.73
2023-07-10T14:01:35.623Z,5.61
2023-07-10T14:04:02.120Z,5.56
2023-07-10T14:06:28.867Z,5.96
2023-07-10T14:08:55.444Z,5.50
2023-07-10T14:11:21.939Z,5.17
2023-07-10T14:13:48.497Z,5.15
2023-07-10T14:16:14.967Z,4.79
2023-07-10T14:18:41.459Z,4.89
2023-07-10T14:21:08.342Z,5.19
2023-07-10T14:23:34.959Z,5.46
2023-07-10T14:26:02.925Z,4.75
2023-07-10T14:28:30.146Z,4.87
2023-07-10T14:30:56.624Z,4.99
2023-07-10T14:33:23.096Z,4.76
2023-07-10T14:35:51.164Z,4.79
2023-07-10T14:38:20.052Z,5.12
2023-07-10T14:40:46.677Z,4.58
2023-07-10T14:43:13.130Z,4.90
2023-07-10T14:45:39.875Z,4.94
2023-07-10T14:48:06.324Z,4.86
2023-07-10T14:50:33.047Z,5.29
2023-07-10T14:52:59.529Z,4.95
2023-07-10T14:55:26.125Z,5.14
2023-07-10T14:57:52.653Z,4.73
2023-07-10T15:00:19.275Z,5.00
2023-07-10T15:02:46.031Z,4.84
2023-07-10T15:05:12.597Z,4.35
2023-07-10T15:07:41.331Z,4.73
2023-07-10T15:10:24.147Z,5.27
2023-07-10T15:12:52.793Z,4.71
2023-07-10T15:15:19.263Z,5.16
2023-07-10T15:17:45.834Z,5.11
2023-07-10T15:20:12.299Z,5.00
2023-07-10T15:22:38.844Z,4.87
2023-07-10T15:25:05.293Z,4.65
2023-07-10T15:27:31.779Z,5.06
2023-07-10T15:29:58.342Z,5.19
2023-07-10T15:32:24.792Z,5.15
2023-07-10T15:34:51.259Z,5.30
2023-07-10T15:37:20.011Z,5.26
2023-07-10T15:39:46.762Z,5.00
2023-07-10T15:42:13.267Z,5.57
2023-07-10T15:44:39.822Z,5.19
2023-07-10T15:47:06.406Z,5.44
2023-07-10T15:49:32.922Z,5.59
2023-07-10T15:51:59.506Z,5.11
2023-07-10T15:54:26.069Z,5.23
2023-07-10T15:56:52.793Z,5.54
2023-07-10T15:59:19.275Z,5.50
2023-07-10T16:01:45.796Z,5.27
2023-07-10T16:04:12.241Z,4.90
2023-07-10T16:06:40.139Z,4.99
2023-07-10T16:09:07.044Z,4.96
2023-07-10T16:11:33.595Z,4.94
2023-07-10T16:14:00.127Z,5.36
2023-07-10T16:16:26.675Z,5.19
2023-07-10T16:18:53.202Z,5.15
2023-07-10T16:21:19.632Z,4.96
2023-07-10T16:23:46.208Z,4.90
2023-07-10T16:26:12.698Z,5.31
2023-07-10T16:28:39.228Z,5.04
2023-07-10T16:31:06.166Z,5.02
2023-07-10T16:33:32.881Z,5.33
2023-07-10T16:35:59.344Z,5.20
2023-07-10T16:38:25.796Z,5.01
2023-07-10T16:40:52.270Z,4.85
2023-07-10T16:43:18.752Z,5.06
2023-07-10T16:45:45.165Z,4.84
2023-07-10T16:48:20.602Z,5.36
2023-07-10T16:50:47.046Z,5.07
2023-07-10T16:53:13.464Z,5.14
2023-07-10T16:55:39.953Z,5.50
2023-07-10T16:58:06.358Z,5.34
2023-07-10T17:00:32.814Z,5.44
2023-07-10T17:02:59.431Z,5.45
2023-07-10T17:05:26.097Z,5.55
2023-07-10T17:07:52.560Z,5.47
2023-07-10T17:10:19.186Z,5.76
2023-07-10T17:12:45.752Z,5.47
2023-07-10T17:15:12.293Z,5.49
2023-07-10T17:17:38.722Z,4.93
2023-07-10T17:20:05.197Z,5.34
2023-07-10T17:22:31.624Z,5.34
2023-07-10T17:24:58.086Z,5.27
2023-07-10T17:27:24.595Z,5.63
2023-07-10T17:29:51.082Z,5.67
2023-07-10T17:32:17.525Z,5.86
2023-07-10T17:34:44.005Z,5.63
2023-07-10T17:37:10.527Z,5.99
2023-07-10T17:39:37.078Z,5.58
2023-07-10T17:42:03.538Z,5.23
2023-07-10T17:44:30.092Z,5.31
2023-07-10T17:46:56.584Z,5.22
2023-07-10T17:49:23.127Z,5.26
2023-07-10T17:51:49.759Z,5.12
2023-07-10T17:54:16.342Z,4.95
2023-07-10T17:56:42.825Z,5.08
2023-07-10T17:59:12.393Z,5.43
2023-07-10T18:01:38.978Z,5.39
2023-07-10T18:04:05.460Z,5.03
2023-07-10T18:06:31.982Z,5.67
2023-07-10T18:08:58.423Z,5.59
2023-07-10T18:11:24.890Z,5.35
2023-07-10T18:13:51.574Z,5.50
2023-07-10T18:16:18.066Z,5.03
2023-07-10T18:18:44.569Z,6.08
2023-07-10T18:21:11.122Z,5.98
2023-07-10T18:23:37.585Z,5.86
2023-07-10T18:26:04.111Z,5.68
2023-07-10T18:28:30.645Z,6.02
2023-07-10T18:30:57.064Z,6.04
2023-07-10T18:33:23.546Z,5.35
2023-07-10T18:35:50.038Z,5.68
2023-07-10T18:38:16.690Z,5.85
2023-07-10T18:40:43.141Z,5.70
2023-07-10T18:43:09.554Z,5.93
2023-07-10T18:45:36.069Z,6.01
2023-07-10T18:48:02.491Z,6.26
2023-07-10T18:50:28.964Z,5.47
2023-07-10T18:52:55.411Z,5.98
2023-07-10T18:55:21.870Z,6.17
2023-07-10T18:57:48.315Z,6.12
2023-07-10T19:02:45.109Z,6.41
2023-07-10T19:05:11.680Z,6.25
2023-07-10T19:07:38.112Z,6.29
2023-07-10T19:10:04.556Z,6.60
2023-07-10T19:12:31.080Z,6.62
2023-07-10T19:15:00.631Z,6.47
2023-07-10T19:17:27.141Z,6.44
2023-07-10T19:19:53.567Z,6.43
2023-07-10T19:22:20.205Z,6.94
2023-07-10T19:24:46.841Z,6.58
2023-07-10T19:27:13.417Z,6.47
2023-07-10T19:29:40.319Z,6.51
2023-07-10T19:32:06.740Z,6.61
2023-07-10T19:34:33.170Z,6.73
2023-07-10T19:36:59.668Z,6.43
2023-07-10T19:39:26.213Z,6.30
2023-07-10T19:41:52.749Z,5.89
2023-07-10T19:44:19.214Z,6.08
2023-07-10T19:46:45.692Z,6.37
2023-07-10T19:49:12.175Z,6.22
2023-07-10T19:51:38.609Z,6.29
2023-07-10T19:54:05.060Z,6.79
2023-07-10T19:56:31.597Z,7.00
2023-07-10T19:58:58.112Z,6.86
2023-07-10T20:01:26.656Z,7.03
2023-07-10T20:03:53.121Z,7.58
2023-07-10T20:06:19.669Z,7.35
2023-07-10T20:08:46.102Z,7.57
2023-07-10T20:11:12.537Z,7.88
2023-07-10T20:13:39.038Z,8.04
2023-07-10T20:16:06.161Z,8.58
2023-07-10T20:18:32.927Z,8.41
2023-07-10T20:20:59.405Z,8.42
2023-07-10T20:23:25.851Z,8.49
2023-07-10T20:25:52.386Z,7.66
2023-07-10T20:28:18.911Z,7.42
2023-07-10T20:30:45.473Z,8.17
2023-07-10T20:33:12.137Z,8.87
2023-07-10T20:35:38.695Z,8.69
2023-07-10T20:38:05.199Z,9.14
2023-07-10T20:40:31.806Z,8.85
2023-07-10T20:42:58.384Z,7.98
2023-07-10T20:45:24.918Z,7.90
2023-07-10T20:47:51.444Z,8.10
2023-07-10T20:50:18.015Z,8.63
2023-07-10T20:52:44.480Z,8.21
2023-07-10T20:55:11.018Z,8.39
2023-07-10T20:57:38.347Z,8.56
2023-07-10T21:00:04.916Z,8.50
2023-07-10T21:02:31.364Z,8.28
2023-07-10T21:04:57.886Z,8.61
2023-07-10T21:07:24.334Z,8.72
2023-07-10T21:09:50.894Z,8.88
2023-07-10T21:12:17.337Z,8.70
2023-07-10T21:14:43.749Z,8.36
2023-07-10T21:17:10.203Z,8.47
2023-07-10T21:19:36.634Z,8.71
2023-07-10T21:22:03.069Z,8.54
2023-07-10T21:24:29.495Z,8.60
2023-07-10T21:26:56.016Z,7.87
2023-07-10T21:29:22.470Z,8.56
2023-07-10T21:31:49.090Z,8.40
2023-07-10T21:34:15.606Z,8.18
2023-07-10T21:36:42.177Z,8.48
2023-07-10T21:39:08.630Z,8.22
2023-07-10T21:41:35.302Z,7.80
2023-07-10T21:44:01.748Z,7.24
2023-07-10T21:46:28.335Z,7.54
2023-07-10T21:48:54.828Z,7.24
2023-07-10T21:51:23.685Z,7.71
2023-07-10T21:53:50.133Z,7.35
2023-07-10T21:56:16.605Z,7.24
2023-07-10T21:58:43.029Z,6.96
2023-07-10T22:01:09.470Z,7.21
2023-07-10T22:03:36.130Z,7.00
2023-07-10T22:06:02.722Z,7.05
2023-07-10T22:08:29.276Z,7.06
2023-07-10T22:10:55.717Z,7.04
2023-07-10T22:13:22.158Z,6.67
2023-07-10T22:15:48.656Z,6.63
2023-07-10T22:18:15.122Z,6.59
2023-07-10T22:20:41.717Z,7.01
2023-07-10T22:23:08.274Z,6.65
2023-07-10T22:25:34.709Z,7.00
2023-07-10T22:28:01.138Z,6.37
2023-07-10T22:30:27.565Z,6.54
2023-07-10T22:32:54.310Z,6.85
2023-07-10T22:35:20.736Z,6.61
2023-07-10T22:37:47.246Z,6.64
2023-07-10T22:40:13.812Z,6.71
2023-07-10T22:42:40.237Z,6.79
2023-07-10T22:45:06.982Z,6.46
2023-07-10T22:47:33.469Z,7.18
2023-07-10T22:49:59.923Z,7.37
2023-07-10T22:52:26.371Z,7.36
2023-07-10T22:54:52.800Z,6.88
2023-07-10T22:57:19.270Z,7.61
2023-07-10T22:59:45.914Z,7.08
2023-07-10T23:02:12.430Z,6.60
2023-07-10T23:04:41.152Z,6.98
2023-07-10T23:07:07.601Z,6.78
2023-07-10T23:09:34.040Z,6.64
2023-07-10T23:12:00.448Z,6.54
2023-07-10T23:14:26.929Z,6.56
2023-07-10T23:16:53.346Z,6.46
2023-07-10T23:19:19.766Z,7.13
2023-07-10T23:21:46.214Z,6.81
2023-07-10T23:24:12.683Z,6.58
2023-07-10T23:26:39.145Z,6.66
2023-07-10T23:29:05.594Z,6.48
2023-07-10T23:31:32.057Z,6.55
2023-07-10T23:33:58.552Z,6.58
2023-07-10T23:36:24.955Z,6.31
2023-07-10T23:38:51.392Z,6.13
2023-07-10T23:41:18.011Z,6.12
2023-07-10T23:43:44.500Z,6.18
2023-07-10T23:46:11.009Z,6.51
2023-07-10T23:48:37.441Z,6.38
2023-07-10T23:51:04.110Z,6.37
2023-07-10T23:53:30.620Z,6.63
2023-07-10T23:55:57.240Z,6.74
2023-07-10T23:58:23.681Z,7.01
